Hanjin Ottawa — DANM — position and weather

sailwx.info

Track history (hours):
 
Tides and Currents Weather Stations Pressure Air Temp Water Temp Dewpoint Dewpoint Depression Visibility Wind Speed Wind Dir Waves Ship Positions

Hanjin Ottawa

Last reported at 2014-Oct-09 07:33 UTC. Time now 2014-Oct-23 02:30 UTC.
Position N 31°06' E 122°27'.
Warning: this ship's position is 13 days out of date.

Length 278.8 m; beam 40.3 m; draft 14 m.

Type: Ship. MMSI: 211378360.

Date/timePositionNaut miles runAvg speedWind from/ knotsBaromVisibWave heightAir tempDewpointWater temp
2014-Oct-09 07:33N 31°06' E 122°27'2813.9
2014-Oct-09 05:31N 31°15' E 121°56'1313.8
2014-Oct-09 04:33N 31°20' E 121°41'1 1.5
2014-Oct-09 03:34N 31°20' E 121°40'0 0.0
2014-Oct-09 02:31N 31°20' E 121°40'0 0.0
2014-Oct-09 00:25N 31°20' E 121°40'0 0.1
2014-Oct-08 23:31N 31°20' E 121°40'0 0.0
2014-Oct-08 21:32N 31°20' E 121°40'0 0.0
2014-Oct-08 20:32N 31°20' E 121°40'0 0.0
2014-Oct-08 19:33N 31°20' E 121°40'0 0.0
2014-Oct-08 18:29N 31°20' E 121°40'0 0.0
2014-Oct-08 17:23N 31°20' E 121°40'0 0.1
2014-Oct-08 16:33N 31°20' E 121°40'0 0.0
2014-Oct-08 15:09N 31°20' E 121°40'1 1.0
2014-Oct-08 14:33N 31°21' E 121°40'1110.0
2014-Oct-08 13:25N 31°16' E 121°52'4812.3
2014-Oct-08 09:31N 30°59' E 122°44'6716.8
2014-Oct-08 05:33N 29°52' E 122°41'1616.3
2014-Oct-08 04:33N 29°43' E 122°25'1413.8
2014-Oct-08 03:33N 29°51' E 122°12'1312.5
2014-Oct-08 02:33N 29°57' E 121°60'8 8.2
2014-Oct-08 01:33N 29°57' E 121°50'0 0.0
2014-Oct-08 00:33N 29°57' E 121°50'0 0.0
2014-Oct-07 23:18N 29°57' E 121°50'0 0.0
2014-Oct-07 22:11N 29°57' E 121°50'0 0.0
2014-Oct-07 21:17N 29°57' E 121°50'0 0.0
2014-Oct-07 19:28N 29°57' E 121°50'0 0.0
2014-Oct-07 18:27N 29°57' E 121°50'0 0.0
2014-Oct-07 17:13N 29°57' E 121°50'0 0.0
2014-Oct-07 16:16N 29°57' E 121°50'0 0.0
2014-Oct-07 15:33N 29°57' E 121°50'1 1.1
2014-Oct-07 14:34N 29°58' E 121°51'9 8.8
2014-Oct-07 13:33N 29°56' E 122°01'1312.8
2014-Oct-07 12:33N 29°49' E 122°13'9 8.7
2014-Oct-07 11:33N 29°45' E 122°22'1110.5
2014-Oct-07 10:33N 29°46' E 122°34'  
Track history (hours):
 
Tides and Currents Weather Stations Pressure Air Temp Water Temp Dewpoint Dewpoint Depression Visibility Wind Speed Wind Dir Waves Ship Positions

Hanjin Ottawa

Last reported at 2014-Oct-09 07:33 UTC. Time now 2014-Oct-23 02:30 UTC.
Position N 31°06' E 122°27'.
Warning: this ship's position is 13 days out of date.

Length 278.8 m; beam 40.3 m; draft 14 m.

Type: Ship. MMSI: 211378360.

Date/timePositionNaut miles runAvg speedWind from/ knotsBaromVisibWave heightAir tempDewpointWater temp
2014-Oct-09 07:33N 31°06' E 122°27'2813.9
2014-Oct-09 05:31N 31°15' E 121°56'1313.8
2014-Oct-09 04:33N 31°20' E 121°41'1 1.5
2014-Oct-09 03:34N 31°20' E 121°40'0 0.0
2014-Oct-09 02:31N 31°20' E 121°40'0 0.0
2014-Oct-09 00:25N 31°20' E 121°40'0 0.1
2014-Oct-08 23:31N 31°20' E 121°40'0 0.0
2014-Oct-08 21:32N 31°20' E 121°40'0 0.0
2014-Oct-08 20:32N 31°20' E 121°40'0 0.0
2014-Oct-08 19:33N 31°20' E 121°40'0 0.0
2014-Oct-08 18:29N 31°20' E 121°40'0 0.0
2014-Oct-08 17:23N 31°20' E 121°40'0 0.1
2014-Oct-08 16:33N 31°20' E 121°40'0 0.0
2014-Oct-08 15:09N 31°20' E 121°40'1 1.0
2014-Oct-08 14:33N 31°21' E 121°40'1110.0
2014-Oct-08 13:25N 31°16' E 121°52'4812.3
2014-Oct-08 09:31N 30°59' E 122°44'6716.8
2014-Oct-08 05:33N 29°52' E 122°41'1616.3
2014-Oct-08 04:33N 29°43' E 122°25'1413.8
2014-Oct-08 03:33N 29°51' E 122°12'1312.5
2014-Oct-08 02:33N 29°57' E 121°60'8 8.2
2014-Oct-08 01:33N 29°57' E 121°50'0 0.0
2014-Oct-08 00:33N 29°57' E 121°50'0 0.0
2014-Oct-07 23:18N 29°57' E 121°50'0 0.0
2014-Oct-07 22:11N 29°57' E 121°50'0 0.0
2014-Oct-07 21:17N 29°57' E 121°50'0 0.0
2014-Oct-07 19:28N 29°57' E 121°50'0 0.0
2014-Oct-07 18:27N 29°57' E 121°50'0 0.0
2014-Oct-07 17:13N 29°57' E 121°50'0 0.0
2014-Oct-07 16:16N 29°57' E 121°50'0 0.0
2014-Oct-07 15:33N 29°57' E 121°50'1 1.1
2014-Oct-07 14:34N 29°58' E 121°51'9 8.8
2014-Oct-07 13:33N 29°56' E 122°01'1312.8
2014-Oct-07 12:33N 29°49' E 122°13'9 8.7
2014-Oct-07 11:33N 29°45' E 122°22'1110.5
2014-Oct-07 10:33N 29°46' E 122°34'  

Dump ship's entire track history